• Join FlightAware (Why Join?)
  • Login
  • US Flag 
03:50PM EDT


 

Airport Tracker/Info


-or-


 

Live Flight TrackerFlight Track Log ✈ UAL4849 ✈ 15-Apr-2013 ✈ KROC - KEWR

Flight Track Log - Related Links

Times and Time Zones

All times are in EDT time to prevent confusion due to time zone crossing. See the UAL4849 flight status page for this flight to view local times or setup timezone preferences in your user account.

Time Position Orientation Groundspeed Altitude Reporting Facility
EDT Latitude Longitude Course Direction KTS MPH feet Rate Location/Type
10:25AM 43.1036 -77.6914 227° Southwest 142 163 1,100  Level Cleveland Center
10:25AM 43.0956 -77.7031 227° Southwest 122 140 1,800 1,260 Climbing Cleveland Center
10:26AM 43.0581 -77.7019 179° South 158 182 2,800 900 Climbing Cleveland Center
10:27AM 42.9944 -77.6681 159° South 178 205 3,900 960 Climbing Cleveland Center
10:28AM 42.9503 -77.6503 164° South 196 226 5,000 1,200 Climbing Cleveland Center
10:29AM 42.9217 -77.5864 121° Southeast 188 216 6,300 1,260 Climbing Cleveland Center
10:30AM 42.9111 -77.5044 100° East 188 216 7,600 1,200 Climbing Cleveland Center
10:31AM 42.8967 -77.4289 105° East 200 230 8,800 1,260 Climbing Cleveland Center
10:32AM 42.8839 -77.3500 102° East 200 230 10,200 1,200 Climbing Cleveland Center
10:33AM 42.8714 -77.2769 103° East 200 230 11,200 1,020 Climbing Cleveland Center
10:35AM 42.8528 -77.1636 103° East 206 237 12,800 660 Climbing New York Center
10:36AM 42.8383 -77.0800 103° East 211 243 13,000 60 Climbing New York Center
10:37AM 42.8206 -76.9853 104° East 234 269 13,000  Level New York Center
10:38AM 42.7836 -76.8939 119° Southeast 254 292 13,000  Level New York Center
10:39AM 42.7442 -76.8083 122° Southeast 268 308 13,000  Level New York Center
10:40AM 42.7069 -76.7231 121° Southeast 273 314 13,000  Level New York Center
10:41AM 42.6672 -76.6378 122° Southeast 268 308 13,000  Level New York Center
10:42AM 42.6300 -76.5528 121° Southeast 268 308 13,000  Level New York Center
10:43AM 42.5942 -76.4706 121° Southeast 268 308 13,000  Level New York Center
10:44AM 42.5544 -76.3883 123° Southeast 268 308 13,000  Level New York Center
10:45AM 42.5003 -76.2733 123° Southeast 255 293 13,000  Level Boston Center
10:46AM 42.4617 -76.1808 119° Southeast 255 293 13,000  Level Boston Center
10:47AM 42.4247 -76.0969 121° Southeast 255 293 13,000  Level Boston Center
10:48AM 42.3858 -76.0131 122° Southeast 255 293 13,000  Level Boston Center
10:49AM 42.3486 -75.9322 122° Southeast 260 299 13,000  Level Boston Center
10:50AM 42.3117 -75.8489 121° Southeast 260 299 13,000  Level Boston Center
10:51AM 42.2744 -75.7681 122° Southeast 260 299 13,000  Level Boston Center
10:52AM 42.2372 -75.6847 121° Southeast 260 299 13,000  Level Boston Center
10:53AM 42.1958 -75.6014 124° Southeast 260 299 13,000  Level Boston Center
10:54AM 42.1586 -75.5156 120° Southeast 260 299 13,000  Level Boston Center
10:55AM 42.1192 -75.4322 123° Southeast 260 299 13,000  Level Boston Center
10:56AM 42.0797 -75.3494 123° Southeast 260 299 13,000  Level Boston Center
10:57AM 42.0444 -75.2611 118° Southeast 267 307 13,000  Level Boston Center
10:58AM 42.0089 -75.1700 118° Southeast 267 307 13,000  Level Boston Center
10:59AM 41.9736 -75.0792 118° Southeast 274 315 13,000  Level Boston Center
11:00AM 41.9425 -74.9883 115° Southeast 274 315 13,000  Level Boston Center
11:01AM 41.9069 -74.8978 118° Southeast 274 315 13,000 -240 Level Boston Center
11:02AM 41.8711 -74.8100 119° Southeast 274 315 12,600 -540 Descending Boston Center
11:03AM 41.8336 -74.7136 118° Southeast 280 322 12,000 -540 Descending Boston Center
11:04AM 41.8000 -74.6206 116° Southeast 285 328 11,600 -1,080 Descending Boston Center
11:05AM 41.7514 -74.5411 129° Southeast 279 321 9,900 -1,620 Descending Boston Center
11:06AM 41.6764 -74.5414 180° South 243 280 8,400 -1,620 Descending Boston Center
11:07AM 41.6011 -74.5556 188° South 267 307 6,700 -1,200 Descending Boston Center
11:08AM 41.5319 -74.5700 189° South 267 307 6,000 -360 Descending Boston Center
11:09AM 41.4631 -74.5814 187° South 253 291 6,000 -120 Level Boston Center
11:11AM 41.3167 -74.6167 190° South 238 274 5,800 -360 Descending New York TRACON
11:12AM 41.2667 -74.5667 143° Southeast 272 313 5,000 -420 Descending New York TRACON
11:13AM 41.2167 -74.5000 135° Southeast 258 297 5,000  Level New York TRACON
11:14AM 41.1667 -74.4333 135° Southeast 254 292 5,000  Level New York TRACON
11:15AM 41.1167 -74.3833 143° Southeast 233 268 5,000  Level New York TRACON
11:16AM 41.0667 -74.3167 135° Southeast 234 269 5,000 -60 Level New York TRACON
11:17AM 41.0167 -74.2667 143° Southeast 214 246 4,900 -540 Descending New York TRACON
11:18AM 40.9833 -74.2167 131° Southeast 197 227 4,000 -600 Descending New York TRACON
11:19AM 40.9500 -74.1833 143° Southeast 185 213 3,700 -540 Descending New York TRACON
11:20AM 40.9000 -74.1333 143° Southeast 181 208 3,000 -540 Descending New York TRACON
11:21AM 40.8667 -74.1000 143° Southeast 168 193 2,700 -240 Descending New York TRACON
11:22AM 40.8167 -74.1000 180° South 165 190 2,600 -360 Descending New York TRACON
11:23AM 40.7833 -74.1167 201° Southwest 142 163 2,000 -780 Descending New York TRACON
11:24AM 40.7500 -74.1333 201° Southwest 142 163 1,100 -900 Descending New York TRACON
11:25AM 40.7167 -74.1500 201° Southwest 137 158 400 -780 Descending New York TRACON
11:27AM 40.6925 -74.1687 169° South  Level Estimated
11:34AM 40.6925 -74.1687 169° South  Level Estimated
11:35AM 40.6925 -74.1687 169° South  Level Estimated